Time;durP1;ratioP1;P1;durP2;ratioP2;P2;SDS_P1;SDS_P2;PMS_P1;PMS_P2;Temp;Humidity;BMP_temperature;BMP_pressure;BME280_temperature;BME280_humidity;BME280_pressure;Samples;Min_cycle;Max_cycle;Signal;HPM_P1;HPM_P2
2023/06/09 00:02:18;;;;;;;11.13;10.23;;;18.30;99.90;;;;;;4942802;29;20654;-81
2023/06/09 00:04:48;;;;;;;11.93;9.70;;;18.30;99.90;;;;;;4943456;29;20408;-81
2023/06/09 00:07:18;;;;;;;11.43;10.43;;;18.40;99.90;;;;;;4941526;29;20450;-82
2023/06/09 00:09:46;;;;;;;10.70;9.80;;;18.30;99.90;;;;;;4942813;29;20446;-81
2023/06/09 00:12:13;;;;;;;11.17;9.80;;;18.20;99.90;;;;;;4941131;29;20456;-80
2023/06/09 00:14:41;;;;;;;11.93;10.63;;;18.20;99.90;;;;;;4943630;29;21016;-80
2023/06/09 00:17:08;;;;;;;11.80;10.70;;;18.20;99.90;;;;;;4942023;29;20506;-80
2023/06/09 00:19:36;;;;;;;11.17;10.03;;;18.20;99.90;;;;;;4938518;29;20470;-80
2023/06/09 00:22:05;;;;;;;13.50;12.03;;;18.10;99.90;;;;;;4938238;29;20455;-81
2023/06/09 00:24:33;;;;;;;12.53;11.23;;;18.10;99.90;;;;;;4933552;29;20452;-80
2023/06/09 00:27:01;;;;;;;12.03;11.00;;;18.10;99.90;;;;;;4944602;29;20795;-80
2023/06/09 00:29:28;;;;;;;13.03;11.63;;;18.10;99.90;;;;;;4935676;29;20541;-79
2023/06/09 00:31:55;;;;;;;12.20;10.50;;;18.10;99.90;;;;;;4942786;29;20883;-81
2023/06/09 00:34:22;;;;;;;11.33;10.40;;;17.90;99.90;;;;;;4942059;29;20531;-82
2023/06/09 00:36:50;;;;;;;12.60;10.60;;;17.90;99.90;;;;;;4943160;28;20818;-78
2023/06/09 00:39:16;;;;;;;11.03;9.90;;;18.00;99.90;;;;;;4942384;29;20424;-79
2023/06/09 00:41:44;;;;;;;13.10;11.90;;;18.00;99.90;;;;;;4943132;29;20451;-80
2023/06/09 00:44:12;;;;;;;10.20;9.20;;;18.10;99.90;;;;;;4938076;29;20484;-80
2023/06/09 00:46:41;;;;;;;16.30;11.30;;;17.90;99.90;;;;;;4940523;29;20483;-81
2023/06/09 00:49:09;;;;;;;14.60;12.10;;;18.00;99.90;;;;;;4942200;29;20428;-81
2023/06/09 00:51:36;;;;;;;12.20;11.00;;;17.90;99.90;;;;;;4943276;29;20532;-81
2023/06/09 00:54:04;;;;;;;11.40;10.30;;;17.90;99.90;;;;;;4942422;29;20444;-82
2023/06/09 00:56:33;;;;;;;12.47;11.10;;;17.90;99.90;;;;;;4951491;29;20434;-81
2023/06/09 00:59:01;;;;;;;12.37;11.13;;;17.90;99.90;;;;;;4943431;29;20676;-81
2023/06/09 01:01:32;;;;;;;12.10;10.90;;;17.80;99.90;;;;;;4942251;29;20535;-83
2023/06/09 01:04:00;;;;;;;11.87;10.77;;;17.70;99.90;;;;;;4927024;29;20441;-84
2023/06/09 01:06:38;;;;;;;16.77;10.33;;;17.90;99.90;;;;;;4942631;29;20428;-82
2023/06/09 01:09:20;;;;;;;12.60;10.67;;;17.80;99.90;;;;;;4942679;29;20721;-80
2023/06/09 01:12:06;;;;;;;12.70;11.43;;;17.70;99.90;;;;;;4950792;29;20493;-81
2023/06/09 01:14:40;;;;;;;11.20;10.20;;;17.50;99.90;;;;;;4941596;29;20412;-83
2023/06/09 01:17:11;;;;;;;14.13;11.97;;;17.70;99.90;;;;;;4943580;29;20423;-83
2023/06/09 01:19:43;;;;;;;12.70;10.30;;;17.50;99.90;;;;;;4956269;29;20518;-80
2023/06/09 01:22:48;;;;;;;11.17;10.23;;;17.50;99.90;;;;;;4939041;29;20837;-81
2023/06/09 01:25:37;;;;;;;11.80;10.70;;;17.50;99.90;;;;;;4940168;29;20443;-82
2023/06/09 01:28:15;;;;;;;11.87;10.70;;;17.50;99.90;;;;;;4944654;29;20448;-85
2023/06/09 01:30:46;;;;;;;12.27;11.27;;;17.70;99.90;;;;;;4955076;29;20469;-84
2023/06/09 01:33:17;;;;;;;12.73;11.70;;;17.60;99.90;;;;;;4953642;28;20483;-79
2023/06/09 01:35:46;;;;;;;12.33;11.20;;;17.60;99.90;;;;;;4954974;29;20774;-80
2023/06/09 01:38:14;;;;;;;12.90;11.77;;;17.60;99.90;;;;;;4945433;29;20443;-82
2023/06/09 01:40:43;;;;;;;11.07;10.07;;;17.40;99.90;;;;;;4936169;29;20464;-79
2023/06/09 01:43:10;;;;;;;12.93;11.47;;;17.50;99.90;;;;;;4940740;29;20435;-80
2023/06/09 01:45:38;;;;;;;12.70;11.40;;;17.50;99.90;;;;;;4939325;29;20431;-82
2023/06/09 01:48:36;;;;;;;12.17;10.90;;;17.30;99.90;;;;;;4942787;29;20449;-86
2023/06/09 01:51:11;;;;;;;13.10;11.77;;;17.20;99.90;;;;;;4934306;29;20486;-81
2023/06/09 01:53:41;;;;;;;11.43;10.30;;;17.10;99.90;;;;;;4941402;29;20515;-82
2023/06/09 01:56:22;;;;;;;10.00;9.20;;;17.10;99.90;;;;;;4942211;29;20426;-83
2023/06/09 01:58:55;;;;;;;14.30;10.43;;;17.00;99.90;;;;;;4940998;29;20936;-81
2023/06/09 02:01:25;;;;;;;12.07;11.07;;;17.10;99.90;;;;;;4940120;29;20657;-80
2023/06/09 02:03:54;;;;;;;12.37;11.30;;;17.00;99.90;;;;;;4938890;29;20476;-83
2023/06/09 02:06:23;;;;;;;11.40;10.13;;;16.90;99.90;;;;;;4939962;29;20467;-84
2023/06/09 02:08:50;;;;;;;11.90;10.37;;;16.80;99.90;;;;;;4941578;29;20772;-81
2023/06/09 02:11:17;;;;;;;12.90;10.97;;;16.70;99.90;;;;;;4934687;29;20844;-81
2023/06/09 02:13:52;;;;;;;11.30;10.40;;;16.70;99.90;;;;;;4941567;29;20478;-86
2023/06/09 02:16:19;;;;;;;13.03;11.73;;;16.80;99.90;;;;;;4941980;29;20457;-79
2023/06/09 02:18:48;;;;;;;12.07;10.87;;;16.70;99.90;;;;;;4943924;29;20433;-84
2023/06/09 02:21:15;;;;;;;12.57;11.00;;;16.60;99.90;;;;;;4938958;29;20453;-81
2023/06/09 02:23:42;;;;;;;12.47;11.47;;;16.60;99.90;;;;;;4941785;29;20532;-80
2023/06/09 02:26:09;;;;;;;11.80;10.70;;;16.70;99.90;;;;;;4938554;29;20472;-78
2023/06/09 02:28:36;;;;;;;11.43;10.33;;;16.90;99.90;;;;;;4936764;29;20517;-79
2023/06/09 02:31:05;;;;;;;20.80;11.93;;;17.10;99.90;;;;;;4940489;29;20480;-80
2023/06/09 02:33:33;;;;;;;12.73;11.43;;;17.10;99.90;;;;;;4936512;29;20529;-80
2023/06/09 02:36:02;;;;;;;10.47;9.57;;;17.40;99.90;;;;;;4939587;29;20434;-84
2023/06/09 02:38:31;;;;;;;10.90;9.80;;;17.30;99.90;;;;;;4930673;29;20595;-81
2023/06/09 02:40:58;;;;;;;13.20;11.83;;;17.40;99.90;;;;;;4934781;29;21024;-78
2023/06/09 02:43:25;;;;;;;10.23;9.30;;;17.30;99.90;;;;;;4936341;29;20512;-79
2023/06/09 02:45:51;;;;;;;10.80;9.77;;;17.00;99.90;;;;;;4939995;29;20453;-78
2023/06/09 02:48:19;;;;;;;10.87;9.90;;;17.10;99.90;;;;;;4939716;29;20484;-78
2023/06/09 02:50:46;;;;;;;10.77;9.67;;;17.30;99.90;;;;;;4939680;29;20480;-79
2023/06/09 02:53:13;;;;;;;10.00;9.10;;;17.40;99.90;;;;;;4933294;29;20485;-80
2023/06/09 02:55:44;;;;;;;11.80;10.70;;;17.30;99.90;;;;;;4940523;29;20607;-82
2023/06/09 02:58:15;;;;;;;11.53;10.43;;;17.20;99.90;;;;;;4940623;29;20609;-81
2023/06/09 03:00:44;;;;;;;13.87;11.10;;;17.30;99.90;;;;;;4941627;29;20421;-81
2023/06/09 03:03:12;;;;;;;13.47;12.17;;;17.50;99.90;;;;;;4937224;29;20487;-79
2023/06/09 03:05:44;;;;;;;10.60;9.63;;;17.50;99.90;;;;;;4938272;29;20460;-79
2023/06/09 03:08:11;;;;;;;11.27;10.17;;;17.40;99.90;;;;;;4940671;29;20652;-82
2023/06/09 03:10:38;;;;;;;14.10;11.50;;;17.40;99.90;;;;;;4940673;29;20825;-80
2023/06/09 03:13:06;;;;;;;12.20;10.83;;;17.30;99.90;;;;;;4940452;29;20862;-84
2023/06/09 03:15:33;;;;;;;12.70;11.50;;;17.20;99.90;;;;;;4935423;29;21057;-78
2023/06/09 03:18:00;;;;;;;9.90;9.03;;;17.20;99.90;;;;;;4940476;29;20524;-81
2023/06/09 03:20:27;;;;;;;11.60;9.93;;;17.20;99.90;;;;;;4937929;29;20543;-80
2023/06/09 03:22:55;;;;;;;11.70;10.67;;;17.20;99.90;;;;;;4944080;29;20473;-85
2023/06/09 03:25:24;;;;;;;11.73;10.53;;;17.40;99.90;;;;;;4942356;29;20524;-84
2023/06/09 03:27:52;;;;;;;13.07;9.93;;;17.80;99.90;;;;;;4941148;29;20453;-82
2023/06/09 03:30:19;;;;;;;11.30;10.30;;;18.10;99.90;;;;;;4944214;29;20435;-80
2023/06/09 03:32:46;;;;;;;12.13;10.57;;;18.50;99.90;;;;;;4941782;29;20482;-79
2023/06/09 03:35:15;;;;;;;12.97;11.27;;;18.80;99.90;;;;;;4943502;29;20612;-81
2023/06/09 03:37:43;;;;;;;12.80;10.70;;;18.90;99.90;;;;;;4945765;29;20448;-80
2023/06/09 03:40:11;;;;;;;11.97;10.77;;;19.10;99.90;;;;;;4941975;29;20781;-79
2023/06/09 03:42:38;;;;;;;11.10;10.10;;;19.50;99.90;;;;;;4945495;29;20510;-79
2023/06/09 03:45:07;;;;;;;12.37;10.93;;;19.70;99.90;;;;;;4942081;29;20453;-78
2023/06/09 03:47:33;;;;;;;11.43;10.43;;;19.60;99.90;;;;;;4941327;29;20425;-81
2023/06/09 03:50:04;;;;;;;11.23;10.33;;;19.40;99.90;;;;;;4939363;29;20448;-85
2023/06/09 03:52:31;;;;;;;19.50;12.33;;;19.10;99.90;;;;;;4944555;29;20821;-86
2023/06/09 03:54:59;;;;;;;11.57;10.60;;;19.00;99.90;;;;;;4943796;29;20448;-82
2023/06/09 03:57:26;;;;;;;14.07;11.43;;;18.90;99.90;;;;;;4944742;29;20421;-84
2023/06/09 03:59:56;;;;;;;11.07;9.87;;;19.00;99.90;;;;;;4939775;29;20520;-82
2023/06/09 04:02:24;;;;;;;13.70;10.07;;;19.10;99.90;;;;;;4942977;29;20438;-83
2023/06/09 04:04:51;;;;;;;18.07;11.73;;;19.00;99.90;;;;;;4944178;29;20429;-82
2023/06/09 04:07:19;;;;;;;12.53;11.53;;;18.70;99.90;;;;;;4943193;29;20882;-80
2023/06/09 04:09:47;;;;;;;13.50;12.30;;;18.80;99.90;;;;;;4935474;29;20480;-85
2023/06/09 04:12:14;;;;;;;11.30;10.20;;;19.20;99.90;;;;;;4935301;29;20580;-80
2023/06/09 04:14:42;;;;;;;12.93;11.37;;;19.00;99.90;;;;;;4940091;29;20763;-79
2023/06/09 04:17:09;;;;;;;11.47;10.57;;;19.30;99.90;;;;;;4944939;29;20421;-80
2023/06/09 04:19:36;;;;;;;12.80;11.50;;;19.40;99.90;;;;;;4946508;29;20518;-80
2023/06/09 04:22:07;;;;;;;15.57;12.13;;;19.60;99.90;;;;;;4945825;29;20520;-79
2023/06/09 04:24:34;;;;;;;12.90;11.13;;;19.70;99.90;;;;;;4943545;29;20466;-81
2023/06/09 04:27:04;;;;;;;18.47;12.20;;;19.50;99.90;;;;;;4940705;29;21041;-80
2023/06/09 04:29:34;;;;;;;12.23;11.17;;;19.60;99.90;;;;;;4933838;29;20666;-80
2023/06/09 04:32:02;;;;;;;12.10;11.10;;;19.70;99.90;;;;;;4942723;29;20472;-81
2023/06/09 04:34:38;;;;;;;13.03;11.93;;;19.90;99.90;;;;;;4955493;28;20428;-82
2023/06/09 04:37:17;;;;;;;14.80;12.90;;;20.00;99.90;;;;;;4945750;29;20631;-81
2023/06/09 04:40:01;;;;;;;13.47;12.27;;;20.20;99.90;;;;;;4945748;29;20952;-79
2023/06/09 04:42:28;;;;;;;13.30;11.67;;;20.30;99.90;;;;;;4945167;29;20427;-83
2023/06/09 04:44:56;;;;;;;11.73;10.63;;;20.40;99.90;;;;;;4947259;29;20416;-87
2023/06/09 04:47:36;;;;;;;14.33;12.60;;;20.90;99.90;;;;;;4957288;28;20444;-82
2023/06/09 04:50:08;;;;;;;12.17;11.17;;;21.00;99.90;;;;;;4961856;29;20413;-78
2023/06/09 04:52:39;;;;;;;12.60;11.10;;;21.00;99.90;;;;;;4945078;29;20528;-80
2023/06/09 04:55:08;;;;;;;13.07;11.87;;;20.60;99.90;;;;;;4933538;29;20445;-77
2023/06/09 04:57:36;;;;;;;14.23;12.57;;;20.40;99.90;;;;;;4941396;29;20417;-81
2023/06/09 05:00:16;;;;;;;13.57;12.07;;;20.30;99.90;;;;;;4931321;29;20458;-80
2023/06/09 05:02:51;;;;;;;12.20;11.00;;;20.40;99.90;;;;;;4938054;29;20458;-80
2023/06/09 05:05:20;;;;;;;15.23;11.53;;;20.80;99.90;;;;;;4942775;29;20752;-83
2023/06/09 05:07:50;;;;;;;13.03;11.40;;;20.80;99.90;;;;;;4937468;29;20417;-80
2023/06/09 05:10:18;;;;;;;13.60;12.23;;;20.60;99.90;;;;;;4936669;29;20686;-81
2023/06/09 05:12:45;;;;;;;12.67;11.47;;;20.70;99.90;;;;;;4936750;29;20490;-81
2023/06/09 05:15:13;;;;;;;14.63;13.13;;;20.90;99.90;;;;;;4936867;29;20446;-81
2023/06/09 05:17:42;;;;;;;14.63;13.13;;;20.70;99.90;;;;;;4939077;29;20453;-82
2023/06/09 05:20:10;;;;;;;14.07;11.97;;;20.70;99.90;;;;;;4933695;29;20425;-78
2023/06/09 05:22:38;;;;;;;13.30;12.00;;;20.90;99.90;;;;;;4943107;29;20646;-80
2023/06/09 05:25:15;;;;;;;12.83;11.70;;;21.00;99.90;;;;;;4934878;29;20446;-84
2023/06/09 05:27:43;;;;;;;14.20;13.00;;;21.20;99.90;;;;;;4937538;29;20416;-82
2023/06/09 05:30:12;;;;;;;13.37;12.27;;;21.40;99.90;;;;;;4944042;29;20510;-81
2023/06/09 05:32:40;;;;;;;14.80;13.57;;;21.40;99.90;;;;;;4935902;29;20465;-85
2023/06/09 05:35:10;;;;;;;14.20;12.83;;;21.30;99.90;;;;;;4941646;29;20814;-83
2023/06/09 05:37:55;;;;;;;14.83;13.63;;;21.30;99.90;;;;;;4944230;29;20429;-82
2023/06/09 05:40:27;;;;;;;14.37;12.90;;;21.10;99.90;;;;;;4937685;29;20425;-83
2023/06/09 05:42:56;;;;;;;15.17;13.63;;;21.10;99.90;;;;;;4939735;29;20517;-83
2023/06/09 05:45:24;;;;;;;15.67;14.03;;;21.30;99.90;;;;;;4943374;29;20525;-82
2023/06/09 05:47:59;;;;;;;14.30;13.17;;;21.60;99.90;;;;;;4943096;29;20464;-82
2023/06/09 05:50:37;;;;;;;13.67;12.50;;;21.50;99.90;;;;;;4942814;29;20442;-83
2023/06/09 05:53:06;;;;;;;19.80;13.17;;;21.50;99.90;;;;;;4944968;29;20478;-83
2023/06/09 05:55:32;;;;;;;13.97;12.60;;;21.80;99.90;;;;;;4944172;29;20762;-83
2023/06/09 05:58:00;;;;;;;15.70;14.20;;;21.80;99.90;;;;;;4942909;29;20433;-85
2023/06/09 06:00:29;;;;;;;14.47;13.00;;;21.80;99.90;;;;;;4938020;29;20417;-82
2023/06/09 06:03:00;;;;;;;14.10;12.70;;;21.70;99.90;;;;;;4941580;29;20432;-84
2023/06/09 06:05:27;;;;;;;13.30;12.10;;;21.40;99.90;;;;;;4939902;29;20450;-82
2023/06/09 06:07:57;;;;;;;14.37;13.10;;;21.40;99.90;;;;;;4942792;29;20452;-82
2023/06/09 06:10:24;;;;;;;14.30;12.73;;;21.60;99.90;;;;;;4940509;29;20437;-83
2023/06/09 06:12:51;;;;;;;16.83;13.20;;;21.40;99.90;;;;;;4934185;29;20479;-84
2023/06/09 06:15:20;;;;;;;15.93;14.53;;;21.10;99.90;;;;;;4939875;29;20465;-83
2023/06/09 06:17:47;;;;;;;15.80;13.53;;;20.40;99.90;;;;;;4904406;29;20449;-89
2023/06/09 06:20:16;;;;;;;13.70;12.40;;;19.90;99.90;;;;;;4914580;29;20630;-81
2023/06/09 06:22:43;;;;;;;12.70;11.40;;;19.60;99.90;;;;;;4923674;29;20490;-85
2023/06/09 06:25:13;;;;;;;16.10;14.53;;;19.30;99.90;;;;;;4911757;29;20772;-83
2023/06/09 06:27:41;;;;;;;13.90;12.70;;;19.40;99.90;;;;;;4920428;29;20872;-80
2023/06/09 06:30:11;;;;;;;17.07;14.60;;;19.30;99.90;;;;;;4922765;29;20450;-84
2023/06/09 06:32:47;;;;;;;12.80;11.80;;;19.70;99.90;;;;;;4922122;29;20499;-84
2023/06/09 06:35:27;;;;;;;12.73;11.63;;;20.10;99.90;;;;;;4923858;29;20417;-84
2023/06/09 06:37:56;;;;;;;20.53;13.97;;;20.30;99.90;;;;;;4900596;29;20421;-86
2023/06/09 06:40:25;;;;;;;13.80;12.40;;;20.70;99.90;;;;;;4924233;29;20565;-84
2023/06/09 06:42:52;;;;;;;15.67;14.13;;;21.30;99.90;;;;;;4931624;29;20425;-86
2023/06/09 06:45:22;;;;;;;14.30;12.90;;;21.90;99.90;;;;;;4919130;29;20826;-85
2023/06/09 06:47:55;;;;;;;15.00;13.60;;;22.20;99.90;;;;;;4923332;29;20934;-88
2023/06/09 06:50:22;;;;;;;13.97;12.77;;;22.60;99.90;;;;;;4922187;29;20614;-86
2023/06/09 06:52:52;;;;;;;15.23;12.97;;;22.40;99.90;;;;;;4923211;29;20949;-86
2023/06/09 06:55:20;;;;;;;17.23;13.50;;;22.70;99.90;;;;;;4924728;29;20478;-80
2023/06/09 06:57:49;;;;;;;13.33;12.13;;;22.80;99.90;;;;;;4923593;29;20492;-86
2023/06/09 07:00:17;;;;;;;12.90;11.70;;;22.80;99.90;;;;;;4920014;29;20425;-86
2023/06/09 07:02:47;;;;;;;16.50;13.50;;;23.00;99.90;;;;;;4918612;29;20422;-84
2023/06/09 07:05:16;;;;;;;14.00;12.50;;;23.10;99.90;;;;;;4917643;29;20417;-88
2023/06/09 07:07:45;;;;;;;13.40;12.20;;;23.00;99.90;;;;;;4912873;29;20782;-86
2023/06/09 07:10:14;;;;;;;16.63;13.60;;;23.20;99.90;;;;;;4916095;29;20795;-83
2023/06/09 07:12:41;;;;;;;13.30;11.57;;;23.30;99.90;;;;;;4923715;29;20475;-86
2023/06/09 07:15:09;;;;;;;16.00;14.40;;;23.40;99.90;;;;;;4923525;29;20540;-88
2023/06/09 07:17:36;;;;;;;13.20;12.00;;;23.80;99.90;;;;;;4922638;29;20451;-86
2023/06/09 07:20:04;;;;;;;12.70;11.60;;;23.70;99.90;;;;;;4906376;29;20414;-82
2023/06/09 07:22:33;;;;;;;13.50;12.33;;;24.20;99.90;;;;;;4920999;29;20449;-85
2023/06/09 07:25:03;;;;;;;13.63;12.33;;;24.20;99.90;;;;;;4925775;29;20421;-84
2023/06/09 07:27:31;;;;;;;17.37;12.07;;;24.90;99.90;;;;;;4930510;29;20421;-84
2023/06/09 07:29:58;;;;;;;12.83;11.63;;;25.90;99.90;;;;;;4923691;29;20443;-83
2023/06/09 07:32:26;;;;;;;13.10;11.90;;;25.70;99.90;;;;;;4923929;29;20520;-85
2023/06/09 07:35:07;;;;;;;;;;;;;;;;;;;;;
2023/06/09 07:37:39;;;;;;;13.37;12.17;;;26.20;99.90;;;;;;4917056;29;20443;-84
2023/06/09 07:40:09;;;;;;;11.97;10.87;;;26.00;99.90;;;;;;4925244;29;20431;-88
2023/06/09 07:42:47;;;;;;;15.87;12.43;;;26.30;99.90;;;;;;4921517;29;20461;-83
2023/06/09 07:45:14;;;;;;;14.53;11.17;;;26.60;99.90;;;;;;4917958;29;20472;-82
2023/06/09 07:47:43;;;;;;;14.27;12.87;;;26.60;99.90;;;;;;4917300;29;20483;-84
2023/06/09 07:50:10;;;;;;;12.90;11.70;;;26.60;99.90;;;;;;4916516;29;20421;-86
2023/06/09 07:52:38;;;;;;;16.63;11.53;;;26.50;99.90;;;;;;4916181;29;20555;-83
2023/06/09 07:55:09;;;;;;;13.63;11.70;;;26.40;99.90;;;;;;4920265;29;20452;-83
2023/06/09 07:57:42;;;;;;;12.90;11.83;;;26.20;99.90;;;;;;4913813;29;20416;-84
2023/06/09 08:00:11;;;;;;;12.13;11.00;;;25.70;99.90;;;;;;4932453;29;20546;-82
2023/06/09 08:02:42;;;;;;;11.80;10.80;;;25.00;99.90;;;;;;4938957;29;20417;-82
2023/06/09 08:05:09;;;;;;;12.40;11.23;;;25.10;99.90;;;;;;4931938;29;20653;-84
2023/06/09 08:07:37;;;;;;;13.63;11.10;;;25.20;99.90;;;;;;4923549;29;20451;-82
2023/06/09 08:10:09;;;;;;;11.27;10.20;;;25.00;99.90;;;;;;4925521;29;20433;-83
2023/06/09 08:12:37;;;;;;;12.97;11.77;;;24.60;99.90;;;;;;4939271;29;20479;-84
2023/06/09 08:15:06;;;;;;;12.57;11.47;;;24.10;99.90;;;;;;4920378;29;20422;-81
2023/06/09 08:17:33;;;;;;;14.77;11.30;;;23.90;99.90;;;;;;4923651;29;20519;-83
2023/06/09 08:20:03;;;;;;;14.00;12.80;;;24.20;99.90;;;;;;4919341;29;20451;-83
2023/06/09 08:22:32;;;;;;;15.37;13.97;;;24.70;99.90;;;;;;4922733;29;20455;-82
2023/06/09 08:24:59;;;;;;;13.50;12.40;;;24.70;99.90;;;;;;4921748;29;20737;-84
2023/06/09 08:27:26;;;;;;;13.50;12.20;;;24.90;99.90;;;;;;4924732;29;20954;-84
2023/06/09 08:29:53;;;;;;;13.47;12.13;;;25.00;99.90;;;;;;4920235;29;20884;-85
2023/06/09 08:32:20;;;;;;;12.50;11.27;;;25.20;99.90;;;;;;4924814;29;20489;-77
2023/06/09 08:34:48;;;;;;;12.87;11.60;;;25.20;99.90;;;;;;4923583;29;20442;-87
2023/06/09 08:37:16;;;;;;;12.57;11.30;;;24.70;99.90;;;;;;4924325;29;20414;-81
2023/06/09 08:39:44;;;;;;;11.67;10.67;;;24.10;99.90;;;;;;4916651;29;20433;-85
2023/06/09 08:42:20;;;;;;;14.20;11.77;;;23.60;99.90;;;;;;4920811;29;20794;-87
2023/06/09 08:44:50;;;;;;;14.60;11.60;;;23.50;99.90;;;;;;4927228;29;20442;-88
2023/06/09 08:47:21;;;;;;;12.90;11.80;;;23.70;99.90;;;;;;4918695;29;20758;-85
2023/06/09 08:49:57;;;;;;;12.93;10.97;;;24.20;99.90;;;;;;4927006;29;20425;-86
2023/06/09 08:52:25;;;;;;;10.37;9.43;;;24.10;99.90;;;;;;4915309;29;20504;-81
2023/06/09 08:54:54;;;;;;;12.00;11.10;;;23.90;99.90;;;;;;4925160;29;20508;-84
2023/06/09 08:57:26;;;;;;;13.47;12.20;;;23.70;99.90;;;;;;4924650;29;20485;-85
2023/06/09 09:00:11;;;;;;;13.20;11.63;;;24.00;99.90;;;;;;4918079;29;20432;-84
2023/06/09 09:02:38;;;;;;;12.63;11.43;;;24.30;99.90;;;;;;4917733;29;20455;-84
2023/06/09 09:05:06;;;;;;;12.67;11.57;;;23.60;99.90;;;;;;4927608;29;20483;-86
2023/06/09 09:07:34;;;;;;;12.90;11.77;;;22.90;99.90;;;;;;4939162;29;20501;-81
2023/06/09 09:10:09;;;;;;;12.40;11.23;;;22.90;99.90;;;;;;4926576;29;20470;-84
2023/06/09 09:12:51;;;;;;;11.63;10.67;;;23.00;99.90;;;;;;4932153;29;20830;-83
2023/06/09 09:15:18;;;;;;;13.53;12.43;;;22.90;99.90;;;;;;4930763;29;20475;-80
2023/06/09 09:17:47;;;;;;;13.93;12.03;;;23.00;99.90;;;;;;4929763;29;20434;-86
2023/06/09 09:20:15;;;;;;;12.73;11.63;;;23.20;99.90;;;;;;4921457;29;20454;-87
2023/06/09 09:22:48;;;;;;;13.40;12.10;;;23.40;99.90;;;;;;4922484;29;20785;-86
2023/06/09 09:25:43;;;;;;;15.40;12.00;;;23.90;99.90;;;;;;4921025;29;20422;-83
2023/06/09 09:28:12;;;;;;;12.10;11.10;;;24.60;99.90;;;;;;4916290;29;20455;-87
2023/06/09 09:30:45;;;;;;;13.63;12.53;;;25.20;99.90;;;;;;4932116;29;20484;-86
2023/06/09 09:33:19;;;;;;;12.63;10.30;;;25.30;99.90;;;;;;4939868;29;20577;-83
2023/06/09 09:35:50;;;;;;;12.87;11.77;;;25.60;99.90;;;;;;4940873;29;20423;-84
2023/06/09 09:38:22;;;;;;;11.37;10.40;;;25.60;99.90;;;;;;4943497;29;20731;-85
2023/06/09 09:40:51;;;;;;;13.57;12.37;;;25.90;99.90;;;;;;4927362;29;20439;-86
2023/06/09 09:43:23;;;;;;;12.60;11.50;;;26.10;99.90;;;;;;4922691;29;20442;-83
2023/06/09 09:45:53;;;;;;;11.60;10.73;;;26.50;99.90;;;;;;4929729;29;20439;-84
2023/06/09 09:48:23;;;;;;;13.37;12.27;;;26.60;99.90;;;;;;4920705;29;20673;-83
2023/06/09 09:50:53;;;;;;;11.63;10.73;;;26.60;99.90;;;;;;4916197;29;20480;-83
2023/06/09 09:53:23;;;;;;;13.10;12.00;;;26.30;99.90;;;;;;4910735;29;20486;-87
2023/06/09 09:55:54;;;;;;;12.57;11.47;;;26.40;99.90;;;;;;4922539;29;20450;-88
2023/06/09 09:58:40;;;;;;;12.40;11.20;;;26.10;99.90;;;;;;4910857;29;20475;-86
2023/06/09 10:01:11;;;;;;;13.23;11.57;;;26.10;99.90;;;;;;4924301;29;20418;-86
2023/06/09 10:03:42;;;;;;;13.33;12.30;;;26.30;99.90;;;;;;4923860;29;20436;-86
2023/06/09 10:06:13;;;;;;;12.93;11.90;;;26.60;99.90;;;;;;4923219;29;20443;-83
2023/06/09 10:08:43;;;;;;;11.67;10.67;;;26.40;99.90;;;;;;4927080;29;20463;-86
2023/06/09 10:11:36;;;;;;;12.83;11.73;;;26.50;99.90;;;;;;4915784;29;20687;-87
2023/06/09 10:14:03;;;;;;;12.00;10.93;;;27.00;99.90;;;;;;4922092;29;20470;-86
2023/06/09 10:16:35;;;;;;;10.47;9.67;;;27.40;99.90;;;;;;4923288;29;20438;-84
2023/06/09 10:19:02;;;;;;;10.63;9.73;;;27.50;99.90;;;;;;4921653;29;20443;-82
2023/06/09 10:21:31;;;;;;;11.47;10.57;;;27.50;99.90;;;;;;4927866;29;20671;-86
2023/06/09 10:24:04;;;;;;;11.50;10.47;;;27.90;99.90;;;;;;4922249;29;20516;-85
2023/06/09 10:26:36;;;;;;;10.57;9.50;;;28.00;99.90;;;;;;4927353;29;20422;-84
2023/06/09 10:29:08;;;;;;;11.87;10.77;;;28.60;99.90;;;;;;4922952;29;20583;-81
2023/06/09 10:31:40;;;;;;;10.17;9.47;;;29.00;99.90;;;;;;4910677;29;20470;-80
2023/06/09 10:34:09;;;;;;;12.77;11.67;;;28.10;99.90;;;;;;4910041;29;21072;-81
2023/06/09 10:36:40;;;;;;;11.20;10.30;;;28.00;99.90;;;;;;4913250;29;20897;-81
2023/06/09 10:39:19;;;;;;;12.10;10.80;;;28.60;99.90;;;;;;4919757;29;20443;-81
2023/06/09 10:41:55;;;;;;;13.60;12.23;;;29.20;99.90;;;;;;4918797;29;20455;-83
2023/06/09 10:44:34;;;;;;;12.00;10.10;;;29.70;99.90;;;;;;4919910;29;20510;-82
2023/06/09 10:47:06;;;;;;;11.10;10.20;;;29.90;99.90;;;;;;4921464;29;20494;-81
2023/06/09 10:49:36;;;;;;;12.03;10.40;;;28.90;99.90;;;;;;4915110;29;20459;-80
2023/06/09 10:52:05;;;;;;;12.33;11.33;;;28.50;99.90;;;;;;4918820;29;20443;-81
2023/06/09 10:54:35;;;;;;;15.67;14.57;;;27.60;99.90;;;;;;4920945;29;20858;-80
2023/06/09 10:57:24;;;;;;;18.47;16.77;;;26.20;99.90;;;;;;4922606;29;20463;-85
2023/06/09 10:59:52;;;;;;;18.57;17.10;;;24.10;99.90;;;;;;4916632;29;20457;-85
2023/06/09 11:02:19;;;;;;;19.83;18.20;;;22.70;99.90;;;;;;4921218;29;20461;-86
2023/06/09 11:04:49;;;;;;;20.37;18.77;;;22.20;99.90;;;;;;4923105;29;20441;-86
2023/06/09 11:07:25;;;;;;;21.53;19.73;;;21.90;99.90;;;;;;4919673;29;20455;-83
2023/06/09 11:09:56;;;;;;;21.30;19.37;;;21.50;99.90;;;;;;4916383;29;20455;-84
2023/06/09 11:12:46;;;;;;;20.53;18.70;;;21.20;99.90;;;;;;4929098;29;20423;-87
2023/06/09 11:15:17;;;;;;;21.37;19.67;;;21.00;99.90;;;;;;4931664;29;20398;-82
2023/06/09 11:17:46;;;;;;;21.47;19.47;;;20.80;99.90;;;;;;4923484;29;20663;-83
2023/06/09 11:20:17;;;;;;;11.37;10.40;;;20.50;99.90;;;;;;4920692;29;20473;-83
2023/06/09 11:23:01;;;;;;;;;;;;;;;;;;;;;
2023/06/09 11:26:37;;;;;;;;;;;;;;;;;;;;;
2023/06/09 11:30:07;;;;;;;9.43;6.17;;;;;;;;;;4780744;29;20529;-90
2023/06/09 11:57:17;;;;;;;26.57;17.83;;;;;;;;;;4924166;23;20487;-87
2023/06/09 11:59:50;;;;;;;19.80;16.63;;;;;;;;;;4921219;29;20503;-86
2023/06/09 12:02:21;;;;;;;19.30;15.13;;;;;;;;;;4923159;29;20451;-85
2023/06/09 12:04:51;;;;;;;18.53;14.80;;;;;;;;;;4920402;29;20434;-84
2023/06/09 12:07:22;;;;;;;17.40;15.67;;;;;;;;;;4905272;29;20442;-85
2023/06/09 12:09:58;;;;;;;19.07;17.10;;;;;;;;;;4917091;29;20440;-84
2023/06/09 12:12:28;;;;;;;15.93;14.40;;;;;;;;;;4900426;29;20862;-83
2023/06/09 12:14:58;;;;;;;19.67;17.27;;;18.90;99.90;;;;;;4919472;29;20492;-83
2023/06/09 12:17:28;;;;;;;17.03;14.70;;;19.20;99.90;;;;;;4903861;29;20503;-84
2023/06/09 12:19:59;;;;;;;14.90;13.30;;;;;;;;;;4902867;29;20429;-81
2023/06/09 12:22:38;;;;;;;15.90;14.20;;;;;;;;;;4904954;29;20415;-82
2023/06/09 12:25:26;;;;;;;16.27;14.57;;;;;;;;;;4919705;29;20450;-83
2023/06/09 12:27:57;;;;;;;14.53;13.23;;;;;;;;;;4915331;29;20470;-81
2023/06/09 12:30:34;;;;;;;16.93;14.03;;;;;;;;;;4917964;29;21568;-81
2023/06/09 12:33:09;;;;;;;15.97;14.37;;;;;;;;;;4918069;29;20422;-81
2023/06/09 12:35:42;;;;;;;16.57;14.07;;;;;;;;;;4899388;29;20440;-81
2023/06/09 12:38:09;;;;;;;13.13;11.83;;;;;;;;;;4902971;29;20988;-82
2023/06/09 12:40:50;;;;;;;13.80;12.37;;;;;;;;;;4899747;29;20426;-80
2023/06/09 12:43:18;;;;;;;15.50;13.30;;;;;;;;;;4901096;29;20463;-81
2023/06/09 12:45:46;;;;;;;14.17;12.77;;;;;;;;;;4915447;29;20438;-82
2023/06/09 12:48:14;;;;;;;14.47;13.20;;;;;;;;;;4901002;29;20793;-82
2023/06/09 12:50:43;;;;;;;13.73;12.23;;;;;;;;;;4895473;29;20731;-81
2023/06/09 12:53:13;;;;;;;14.50;13.20;;;;;;;;;;4915445;29;20442;-82
2023/06/09 12:55:42;;;;;;;14.30;12.93;;;;;;;;;;4901545;29;20655;-80
2023/06/09 12:58:10;;;;;;;14.13;12.67;;;;;;;;;;4898994;29;20864;-82
2023/06/09 13:00:39;;;;;;;21.10;15.33;;;;;;;;;;4902368;29;20490;-79
2023/06/09 13:03:07;;;;;;;22.30;15.90;;;;;;;;;;4915643;29;20520;-81
2023/06/09 13:05:35;;;;;;;20.67;15.27;;;;;;;;;;4896956;29;21205;-79
2023/06/09 13:08:04;;;;;;;19.27;14.80;;;;;;;;;;4898759;29;20427;-80
2023/06/09 13:10:32;;;;;;;28.50;15.40;;;;;;;;;;4897321;29;20430;-80
2023/06/09 13:12:59;;;;;;;27.83;17.40;;;;;;;;;;4916719;29;20423;-80
2023/06/09 13:15:27;;;;;;;26.20;16.97;;;;;;;;;;4902010;29;20521;-81
2023/06/09 13:17:55;;;;;;;17.73;15.00;;;;;;;;;;4896752;29;20487;-80
2023/06/09 13:20:22;;;;;;;20.77;15.53;;;;;;;;;;4901187;29;20767;-81
2023/06/09 13:22:50;;;;;;;16.30;13.23;;;;;;;;;;4903052;29;20522;-81
2023/06/09 13:25:18;;;;;;;16.97;14.83;;;;;;;;;;4918598;29;20459;-80
2023/06/09 13:27:46;;;;;;;15.30;13.30;;;;;;;;;;4901858;29;20462;-80